createdAt,value
2019-05-10T00:00:14.183Z,5.17
2019-05-10T00:03:00.617Z,4.83
2019-05-10T00:05:47.715Z,4.30
2019-05-10T00:08:34.606Z,4.90
2019-05-10T00:11:04.978Z,4.50
2019-05-10T00:13:48.709Z,3.80
2019-05-10T00:16:17.786Z,3.60
2019-05-10T00:18:46.192Z,4.10
2019-05-10T00:21:14.594Z,3.70
2019-05-10T00:23:43.004Z,4.00
2019-05-10T00:26:11.405Z,3.67
2019-05-10T00:28:39.818Z,4.07
2019-05-10T00:31:08.289Z,3.80
2019-05-10T00:33:36.696Z,4.33
2019-05-10T00:36:05.106Z,4.50
2019-05-10T00:38:33.506Z,4.80
2019-05-10T00:41:01.924Z,4.63
2019-05-10T00:43:30.325Z,4.63
2019-05-10T00:45:58.733Z,4.67
2019-05-10T00:48:27.134Z,4.80
2019-05-10T00:50:55.547Z,5.00
2019-05-10T00:53:23.950Z,4.63
2019-05-10T00:55:52.358Z,4.47
2019-05-10T00:58:20.757Z,4.40
2019-05-10T01:00:49.161Z,4.53
2019-05-10T01:03:17.566Z,4.63
2019-05-10T01:05:45.973Z,4.63
2019-05-10T01:08:14.396Z,4.30
2019-05-10T01:10:42.801Z,4.80
2019-05-10T01:13:11.205Z,4.67
2019-05-10T01:15:39.706Z,4.40
2019-05-10T01:18:08.110Z,4.97
2019-05-10T01:20:36.525Z,5.00
2019-05-10T01:23:04.933Z,4.87
2019-05-10T01:25:35.625Z,5.47
2019-05-10T01:28:03.564Z,5.00
2019-05-10T01:30:32.042Z,5.50
2019-05-10T01:33:00.885Z,5.07
2019-05-10T01:35:29.284Z,4.93
2019-05-10T01:37:57.692Z,5.50
2019-05-10T01:40:26.114Z,5.17
2019-05-10T01:42:54.523Z,5.30
2019-05-10T01:45:22.926Z,5.00
2019-05-10T01:47:51.329Z,5.10
2019-05-10T01:50:19.736Z,4.73
2019-05-10T01:52:48.142Z,4.40
2019-05-10T01:55:16.551Z,4.57
2019-05-10T01:57:44.955Z,4.50
2019-05-10T02:00:13.898Z,4.20
2019-05-10T02:02:42.313Z,4.27
2019-05-10T02:05:11.058Z,4.47
2019-05-10T02:07:39.551Z,4.03
2019-05-10T02:10:08.986Z,3.80
2019-05-10T02:12:37.695Z,3.60
2019-05-10T02:15:09.763Z,4.00
2019-05-10T02:17:38.175Z,3.60
2019-05-10T02:20:07.222Z,3.93
2019-05-10T02:22:36.158Z,4.17
2019-05-10T02:25:05.306Z,3.70
2019-05-10T02:27:33.721Z,3.60
2019-05-10T02:30:02.135Z,3.53
2019-05-10T02:32:30.527Z,4.10
2019-05-10T02:34:58.936Z,3.87
2019-05-10T02:37:27.339Z,4.13
2019-05-10T02:39:55.746Z,3.93
2019-05-10T02:42:24.146Z,4.13
2019-05-10T02:44:52.583Z,4.80
2019-05-10T02:47:20.987Z,4.30
2019-05-10T02:49:49.395Z,4.20
2019-05-10T02:52:17.871Z,4.30
2019-05-10T02:54:46.346Z,4.60
2019-05-10T02:57:15.523Z,4.60
2019-05-10T02:59:44.939Z,4.07
2019-05-10T03:02:14.584Z,4.57
2019-05-10T03:04:45.921Z,5.07
2019-05-10T03:07:18.039Z,5.20
2019-05-10T03:09:48.925Z,5.10
2019-05-10T03:12:26.885Z,5.20
2019-05-10T03:14:59.013Z,4.67
2019-05-10T03:17:28.350Z,5.43
2019-05-10T03:19:56.996Z,5.07
2019-05-10T03:22:26.072Z,5.17
2019-05-10T03:24:54.987Z,4.80
2019-05-10T03:27:23.535Z,5.30
2019-05-10T03:29:52.484Z,5.63
2019-05-10T03:32:20.956Z,4.97
2019-05-10T03:34:49.433Z,5.67
2019-05-10T03:37:18.061Z,5.20
2019-05-10T03:39:46.638Z,5.60
2019-05-10T03:42:15.288Z,5.43
2019-05-10T03:44:43.750Z,5.87
2019-05-10T03:47:12.149Z,5.03
2019-05-10T03:49:40.554Z,5.70
2019-05-10T03:52:08.954Z,5.60
2019-05-10T03:54:37.382Z,6.00
2019-05-10T03:57:14.653Z,5.80
2019-05-10T03:59:35.900Z,6.10
2019-05-10T04:02:04.305Z,6.10
2019-05-10T04:04:32.783Z,6.50
2019-05-10T04:07:01.226Z,5.60
2019-05-10T04:09:29.677Z,5.80
2019-05-10T04:11:58.102Z,6.23
2019-05-10T04:14:26.507Z,6.20
2019-05-10T04:16:54.910Z,5.80
2019-05-10T04:19:23.310Z,5.83
2019-05-10T04:21:51.774Z,5.20
2019-05-10T04:24:20.350Z,5.30
2019-05-10T04:26:48.748Z,5.50
2019-05-10T04:29:17.158Z,5.80
2019-05-10T04:31:45.558Z,5.13
2019-05-10T04:34:13.962Z,5.30
2019-05-10T04:36:42.379Z,5.77
2019-05-10T04:39:10.773Z,5.50
2019-05-10T04:41:39.177Z,5.87
2019-05-10T04:44:07.575Z,5.40
2019-05-10T04:46:35.969Z,5.60
2019-05-10T04:49:04.387Z,5.07
2019-05-10T04:51:32.799Z,5.30
2019-05-10T04:54:01.203Z,4.90
2019-05-10T04:56:29.958Z,5.03
2019-05-10T04:58:58.470Z,5.10
2019-05-10T05:01:26.881Z,4.90
2019-05-10T05:03:55.270Z,5.30
2019-05-10T05:06:23.730Z,5.37
2019-05-10T05:08:52.141Z,5.10
2019-05-10T05:11:20.569Z,5.07
2019-05-10T05:13:48.981Z,5.27
2019-05-10T05:16:17.398Z,4.97
2019-05-10T05:18:45.847Z,5.53
2019-05-10T05:21:14.262Z,4.60
2019-05-10T05:23:42.661Z,4.40
2019-05-10T05:26:11.066Z,4.50
2019-05-10T05:28:39.468Z,5.23
2019-05-10T05:31:08.649Z,4.67
2019-05-10T05:33:37.093Z,4.20
2019-05-10T05:36:05.510Z,4.37
2019-05-10T05:38:33.914Z,4.17
2019-05-10T05:41:02.333Z,4.80
2019-05-10T05:43:30.734Z,4.53
2019-05-10T05:45:59.147Z,4.70
2019-05-10T05:48:39.516Z,5.17
2019-05-10T05:50:57.812Z,4.40
2019-05-10T05:53:26.220Z,3.60
2019-05-10T05:55:54.636Z,3.87
2019-05-10T05:58:27.150Z,4.00
2019-05-10T06:00:53.183Z,4.10
2019-05-10T06:03:27.599Z,3.90
2019-05-10T06:05:51.901Z,3.40
2019-05-10T06:08:23.573Z,3.97
2019-05-10T06:10:57.378Z,3.27
2019-05-10T06:13:23.323Z,3.10
2019-05-10T06:15:50.733Z,3.27
2019-05-10T06:18:19.138Z,3.00
2019-05-10T06:20:47.654Z,3.10
2019-05-10T06:23:16.049Z,3.30
2019-05-10T06:25:44.470Z,3.20
2019-05-10T06:28:26.382Z,3.30
2019-05-10T06:30:43.175Z,3.20
2019-05-10T06:33:13.277Z,2.97
2019-05-10T06:35:41.919Z,3.63
2019-05-10T06:38:10.317Z,3.73
2019-05-10T06:40:46.565Z,3.30
2019-05-10T06:43:13.484Z,3.53
2019-05-10T06:45:39.004Z,2.60
2019-05-10T06:48:07.406Z,2.70
2019-05-10T06:50:35.815Z,2.97
2019-05-10T06:53:07.757Z,2.50
2019-05-10T06:55:34.346Z,2.57
2019-05-10T06:58:02.755Z,2.60
2019-05-10T07:00:31.211Z,2.77
2019-05-10T07:02:59.621Z,2.23
2019-05-10T07:05:28.037Z,2.50
2019-05-10T07:08:00.628Z,2.50
2019-05-10T07:10:26.603Z,2.37
2019-05-10T07:12:57.007Z,2.33
2019-05-10T07:15:25.233Z,2.03
2019-05-10T07:17:53.640Z,2.00
2019-05-10T07:20:23.762Z,1.80
2019-05-10T07:22:52.177Z,1.70
2019-05-10T07:25:20.568Z,1.40
2019-05-10T07:27:50.380Z,1.70
2019-05-10T07:30:36.387Z,1.23
2019-05-10T07:33:05.141Z,1.70
2019-05-10T07:35:36.834Z,1.17
2019-05-10T07:38:04.138Z,1.30
2019-05-10T07:40:32.541Z,1.10
2019-05-10T07:43:00.941Z,1.30
2019-05-10T07:45:29.354Z,1.40
2019-05-10T07:48:02.512Z,1.47
2019-05-10T07:50:27.886Z,1.15
2019-05-10T07:52:56.301Z,1.62
2019-05-10T07:55:28.210Z,1.30
2019-05-10T07:57:59.122Z,1.22
2019-05-10T08:00:25.559Z,1.62
2019-05-10T08:03:00.829Z,1.32
2019-05-10T08:05:24.210Z,1.22
2019-05-10T08:07:52.617Z,1.20
2019-05-10T08:10:21.443Z,0.98
2019-05-10T08:12:50.121Z,1.05
2019-05-10T08:15:19.489Z,0.95
2019-05-10T08:17:50.690Z,1.07
2019-05-10T08:20:30.689Z,0.98
2019-05-10T08:22:48.730Z,1.10
2019-05-10T08:25:17.139Z,0.85
2019-05-10T08:27:50.708Z,1.10
2019-05-10T08:30:26.251Z,1.03
2019-05-10T08:32:48.895Z,0.90
2019-05-10T08:35:18.842Z,0.80
2019-05-10T08:37:47.382Z,1.00
2019-05-10T08:40:19.605Z,1.20
2019-05-10T08:42:54.264Z,1.13
2019-05-10T08:45:16.267Z,1.10
2019-05-10T08:47:44.735Z,1.00
2019-05-10T08:50:28.751Z,1.07
2019-05-10T08:52:43.432Z,1.23
2019-05-10T08:55:12.449Z,0.90
2019-05-10T09:00:41.420Z,1.23
2019-05-10T09:03:00.975Z,1.20
2019-05-10T09:05:29.405Z,0.93
2019-05-10T09:07:58.065Z,1.27
2019-05-10T09:10:26.469Z,1.10
2019-05-10T09:12:58.202Z,1.30
2019-05-10T09:15:25.014Z,0.98
2019-05-10T09:17:53.528Z,1.47
2019-05-10T09:20:26.386Z,1.20
2019-05-10T09:22:52.805Z,1.30
2019-05-10T09:25:29.176Z,1.30
2019-05-10T09:27:53.177Z,1.30
2019-05-10T09:30:32.439Z,1.15
2019-05-10T09:33:08.319Z,1.10
2019-05-10T09:35:33.003Z,1.22
2019-05-10T09:38:02.017Z,1.10
2019-05-10T09:40:32.776Z,1.25
2019-05-10T09:43:05.267Z,1.55
2019-05-10T09:45:32.423Z,1.20
2019-05-10T09:48:02.456Z,1.25
2019-05-10T09:50:41.040Z,1.20
2019-05-10T09:53:01.439Z,1.10
2019-05-10T09:55:29.859Z,1.00
2019-05-10T09:57:58.463Z,1.30
2019-05-10T10:00:37.712Z,1.20
2019-05-10T10:03:08.002Z,1.12
2019-05-10T10:05:39.914Z,1.10
2019-05-10T10:08:09.028Z,1.10
2019-05-10T10:10:37.123Z,1.20
2019-05-10T10:13:11.748Z,1.00
2019-05-10T10:15:37.321Z,1.17
2019-05-10T10:18:06.356Z,1.20
2019-05-10T10:20:40.633Z,1.47
2019-05-10T10:23:07.324Z,1.00
2019-05-10T10:25:40.455Z,1.20
2019-05-10T10:28:08.238Z,1.00
2019-05-10T10:30:37.289Z,1.00
2019-05-10T10:33:11.355Z,1.22
2019-05-10T10:35:37.761Z,1.20
2019-05-10T10:38:08.033Z,1.20
2019-05-10T10:40:44.354Z,0.82
2019-05-10T10:43:07.534Z,1.10
2019-05-10T10:45:37.681Z,1.10
2019-05-10T10:48:08.474Z,1.47
2019-05-10T10:50:37.291Z,1.22
2019-05-10T10:53:08.030Z,1.00
2019-05-10T10:55:40.296Z,1.15
2019-05-10T10:58:22.062Z,1.05
2019-05-10T11:00:51.336Z,0.98
2019-05-10T11:03:24.113Z,1.10
2019-05-10T11:05:50.105Z,1.20
2019-05-10T11:08:18.505Z,1.00
2019-05-10T11:10:46.917Z,0.97
2019-05-10T11:13:23.747Z,1.27
2019-05-10T11:15:45.468Z,0.90
2019-05-10T11:18:13.945Z,1.10
2019-05-10T11:20:49.291Z,0.93
2019-05-10T11:23:15.943Z,1.20
2019-05-10T11:25:50.407Z,1.00
2019-05-10T11:28:12.750Z,1.20
2019-05-10T11:30:41.158Z,1.17
2019-05-10T11:33:25.454Z,1.20
2019-05-10T11:35:41.721Z,1.17
2019-05-10T11:38:12.913Z,1.25
2019-05-10T11:40:41.864Z,1.25
2019-05-10T11:43:10.087Z,1.10
2019-05-10T11:45:41.973Z,1.00
2019-05-10T11:48:10.826Z,1.17
2019-05-10T11:50:40.918Z,1.10
2019-05-10T11:53:13.328Z,1.30
2019-05-10T11:55:42.753Z,1.00
2019-05-10T11:58:23.606Z,1.03
2019-05-10T12:00:55.683Z,1.27
2019-05-10T12:03:23.150Z,1.20
2019-05-10T12:05:53.258Z,1.65
2019-05-10T12:08:22.170Z,1.20
2019-05-10T12:10:59.384Z,1.10
2019-05-10T12:13:24.440Z,1.00
2019-05-10T12:15:52.084Z,1.30
2019-05-10T12:18:26.665Z,1.30
2019-05-10T12:20:58.604Z,1.27
2019-05-10T12:23:30.150Z,1.03
2019-05-10T12:26:17.888Z,1.07
2019-05-10T12:28:27.281Z,1.00
2019-05-10T12:30:51.144Z,1.02
2019-05-10T12:33:25.290Z,1.10
2019-05-10T12:35:51.014Z,1.02
2019-05-10T12:38:23.542Z,1.15
2019-05-10T12:40:51.380Z,1.02
2019-05-10T12:43:21.080Z,1.27
2019-05-10T12:45:51.841Z,1.00
2019-05-10T12:48:23.277Z,1.00
2019-05-10T12:50:54.413Z,0.97
2019-05-10T12:53:21.490Z,1.20
2019-05-10T12:55:50.289Z,1.10
2019-05-10T12:58:18.738Z,1.92
2019-05-10T13:00:52.695Z,1.00
2019-05-10T13:03:19.357Z,3.53
2019-05-10T13:05:52.520Z,1.30
2019-05-10T13:08:17.582Z,1.10
2019-05-10T13:10:49.707Z,1.07
2019-05-10T13:13:17.615Z,1.00
2019-05-10T13:15:46.244Z,1.07
2019-05-10T13:18:14.662Z,1.40
2019-05-10T13:20:43.128Z,1.20
2019-05-10T13:23:15.969Z,1.20
2019-05-10T13:25:42.545Z,1.00
2019-05-10T13:28:11.793Z,1.60
2019-05-10T13:30:40.496Z,0.88
2019-05-10T13:33:09.039Z,1.62
2019-05-10T13:35:37.533Z,1.32
2019-05-10T13:38:06.534Z,1.30
2019-05-10T13:40:38.923Z,0.93
2019-05-10T13:43:05.260Z,1.40
2019-05-10T13:45:37.916Z,1.23
2019-05-10T13:48:03.878Z,0.90
2019-05-10T13:50:32.277Z,1.23
2019-05-10T13:53:00.689Z,1.20
2019-05-10T13:55:29.235Z,1.30
2019-05-10T13:57:57.630Z,1.20
2019-05-10T14:00:33.159Z,1.17
2019-05-10T14:02:56.910Z,1.53
2019-05-10T14:05:25.380Z,1.37
2019-05-10T14:07:54.065Z,1.57
2019-05-10T14:10:25.194Z,1.40
2019-05-10T14:12:56.007Z,1.93
2019-05-10T14:15:24.304Z,1.23
2019-05-10T14:17:52.741Z,1.43
2019-05-10T14:20:25.089Z,1.43
2019-05-10T14:22:55.628Z,1.90
2019-05-10T14:25:21.606Z,1.30
2019-05-10T14:27:50.015Z,1.53
2019-05-10T14:30:18.710Z,1.50
2019-05-10T14:32:47.154Z,1.70
2019-05-10T14:35:16.541Z,1.47
2019-05-10T14:37:48.160Z,1.60
2019-05-10T14:40:16.912Z,1.43
2019-05-10T14:42:46.530Z,1.40
2019-05-10T14:45:15.304Z,1.70
2019-05-10T14:47:47.792Z,1.07
2019-05-10T14:50:19.304Z,1.20
2019-05-10T14:52:45.193Z,1.60
2019-05-10T14:55:14.091Z,1.53
2019-05-10T14:57:42.625Z,1.67
2019-05-10T15:00:11.516Z,1.50
2019-05-10T15:02:40.196Z,1.57
2019-05-10T15:05:15.946Z,1.60
2019-05-10T15:07:39.143Z,1.67
2019-05-10T15:10:07.810Z,1.30
2019-05-10T15:12:36.232Z,1.67
2019-05-10T15:15:06.478Z,1.60
2019-05-10T15:17:34.878Z,1.63
2019-05-10T15:20:05.123Z,1.70
2019-05-10T15:22:33.530Z,1.60
2019-05-10T15:25:01.963Z,1.47
2019-05-10T15:27:30.434Z,1.60
2019-05-10T15:30:05.096Z,1.50
2019-05-10T15:32:29.048Z,1.30
2019-05-10T15:35:06.226Z,1.40
2019-05-10T15:37:27.758Z,1.47
2019-05-10T15:40:00.532Z,1.50
2019-05-10T15:42:30.403Z,1.40
2019-05-10T15:44:56.582Z,1.87
2019-05-10T15:47:24.991Z,1.37
2019-05-10T15:49:59.354Z,1.30
2019-05-10T15:52:23.680Z,1.27
2019-05-10T15:54:52.294Z,2.20
2019-05-10T15:57:22.009Z,3.33
2019-05-10T15:59:56.283Z,1.80
2019-05-10T16:02:20.869Z,1.30
2019-05-10T16:04:49.282Z,1.30
2019-05-10T16:07:17.811Z,1.10
2019-05-10T16:09:49.923Z,1.10
2019-05-10T16:12:16.342Z,1.30
2019-05-10T16:14:45.739Z,1.30
2019-05-10T16:17:17.559Z,1.10
2019-05-10T16:19:44.473Z,1.20
2019-05-10T16:22:12.882Z,1.03
2019-05-10T16:24:41.294Z,1.30
2019-05-10T16:27:09.698Z,1.30
2019-05-10T16:29:39.687Z,1.23
2019-05-10T16:32:09.221Z,1.47
2019-05-10T16:34:37.629Z,1.30
2019-05-10T16:37:06.126Z,1.30
2019-05-10T16:39:34.638Z,1.03
2019-05-10T16:42:03.103Z,1.20
2019-05-10T16:44:31.554Z,1.20
2019-05-10T16:46:59.959Z,1.30
2019-05-10T16:49:28.376Z,1.10
2019-05-10T16:51:56.790Z,1.40
2019-05-10T16:54:27.309Z,1.20
2019-05-10T16:56:59.325Z,1.73
2019-05-10T16:59:29.985Z,1.47
2019-05-10T17:02:03.495Z,1.50
2019-05-10T17:04:25.781Z,1.10
2019-05-10T17:06:56.588Z,1.27
2019-05-10T17:09:24.374Z,1.40
2019-05-10T17:11:52.941Z,1.30
2019-05-10T17:14:21.358Z,1.30
2019-05-10T17:16:58.278Z,1.57
2019-05-10T17:19:19.907Z,3.43
2019-05-10T17:21:48.305Z,1.57
2019-05-10T17:24:18.638Z,1.23
2019-05-10T17:26:46.840Z,1.23
2019-05-10T17:29:15.290Z,1.13
2019-05-10T17:31:45.772Z,1.50
2019-05-10T17:34:22.122Z,1.75
2019-05-10T17:36:43.962Z,1.13
2019-05-10T17:39:12.390Z,1.10
2019-05-10T17:41:40.853Z,1.20
2019-05-10T17:44:09.249Z,1.23
2019-05-10T17:46:37.661Z,1.77
2019-05-10T17:49:06.069Z,1.37
2019-05-10T17:51:34.469Z,1.60
2019-05-10T17:54:03.777Z,1.40
2019-05-10T17:56:32.861Z,1.70
2019-05-10T17:59:05.776Z,2.07
2019-05-10T18:01:33.019Z,2.10
2019-05-10T18:04:01.421Z,2.00
2019-05-10T18:06:29.874Z,1.70
2019-05-10T18:08:58.277Z,1.83
2019-05-10T18:11:26.749Z,2.33
2019-05-10T18:13:55.193Z,2.00
2019-05-10T18:16:23.625Z,2.20
2019-05-10T18:18:52.053Z,1.47
2019-05-10T18:21:22.086Z,1.57
2019-05-10T18:23:52.644Z,1.53
2019-05-10T18:26:20.813Z,1.40
2019-05-10T18:28:49.212Z,1.60
2019-05-10T18:31:17.641Z,1.70
2019-05-10T18:33:54.330Z,1.70
2019-05-10T18:36:16.178Z,1.93
2019-05-10T18:38:44.657Z,2.50
2019-05-10T18:41:13.087Z,2.10
2019-05-10T18:43:42.961Z,1.60
2019-05-10T18:46:11.766Z,1.47
2019-05-10T18:48:40.187Z,1.60
2019-05-10T18:51:08.589Z,1.63
2019-05-10T18:53:37.030Z,1.87
2019-05-10T18:56:05.483Z,1.90
2019-05-10T18:58:33.898Z,2.60
2019-05-10T19:01:02.560Z,3.37
2019-05-10T19:03:33.809Z,3.87
2019-05-10T19:06:04.085Z,3.87
2019-05-10T19:08:31.379Z,5.97
2019-05-10T19:10:59.847Z,8.73
2019-05-10T19:13:32.447Z,18.90
2019-05-10T19:15:58.820Z,20.13
2019-05-10T19:18:27.490Z,16.03
2019-05-10T19:20:55.902Z,16.37
2019-05-10T19:23:24.591Z,18.53
2019-05-10T19:25:53.864Z,22.33
2019-05-10T19:28:26.954Z,17.37
2019-05-10T19:30:58.464Z,11.50
2019-05-10T19:33:22.903Z,6.83
2019-05-10T19:35:51.309Z,5.83
2019-05-10T19:38:19.745Z,4.87
2019-05-10T19:40:48.149Z,4.83
2019-05-10T19:43:21.567Z,5.63
2019-05-10T19:45:51.154Z,4.57
2019-05-10T19:48:16.816Z,5.77
2019-05-10T19:50:45.240Z,6.00
2019-05-10T19:53:13.654Z,9.57
2019-05-10T19:55:42.153Z,11.53
2019-05-10T19:58:10.569Z,12.23
2019-05-10T20:00:39.005Z,11.57
2019-05-10T20:03:07.484Z,10.27
2019-05-10T20:05:36.057Z,9.27
2019-05-10T20:08:04.633Z,9.27
2019-05-10T20:10:33.052Z,8.57
2019-05-10T20:13:01.523Z,7.97
2019-05-10T20:15:29.931Z,7.00
2019-05-10T20:17:58.391Z,6.17
2019-05-10T20:20:26.859Z,7.80
2019-05-10T20:22:55.322Z,8.43
2019-05-10T20:25:23.742Z,9.67
2019-05-10T20:27:52.145Z,9.40
2019-05-10T20:30:20.820Z,9.90
2019-05-10T20:32:49.219Z,9.53
2019-05-10T20:35:17.647Z,8.43
2019-05-10T20:38:00.666Z,8.33
2019-05-10T20:40:17.674Z,8.87
2019-05-10T20:42:46.073Z,8.13
2019-05-10T20:45:15.438Z,7.80
2019-05-10T20:47:43.854Z,9.50
2019-05-10T20:50:13.825Z,12.10
2019-05-10T20:52:42.229Z,12.47
2019-05-10T20:55:11.056Z,11.70
2019-05-10T20:57:39.749Z,7.03
2019-05-10T21:00:08.690Z,7.70
2019-05-10T21:02:37.095Z,8.17
2019-05-10T21:05:06.769Z,7.20
2019-05-10T21:07:35.176Z,8.10
2019-05-10T21:10:04.369Z,8.27
2019-05-10T21:12:32.939Z,8.23
2019-05-10T21:15:01.403Z,8.77
2019-05-10T21:17:29.815Z,7.70
2019-05-10T21:19:58.202Z,7.30
2019-05-10T21:22:26.606Z,6.57
2019-05-10T21:24:55.002Z,6.40
2019-05-10T21:27:23.418Z,6.40
2019-05-10T21:29:51.812Z,6.03
2019-05-10T21:32:20.223Z,5.57
2019-05-10T21:34:48.623Z,5.70
2019-05-10T21:37:17.089Z,5.27
2019-05-10T21:39:45.535Z,4.90
2019-05-10T21:42:14.006Z,4.97
2019-05-10T21:44:42.416Z,4.53
2019-05-10T21:47:10.875Z,4.47
2019-05-10T21:49:39.266Z,5.37
2019-05-10T21:52:07.666Z,4.73
2019-05-10T21:54:36.130Z,4.77
2019-05-10T21:57:04.633Z,4.53
2019-05-10T21:59:33.073Z,5.07
2019-05-10T22:02:01.468Z,5.17
2019-05-10T22:04:29.924Z,4.70
2019-05-10T22:06:58.366Z,5.17
2019-05-10T22:09:26.969Z,4.90
2019-05-10T22:11:55.496Z,4.70
2019-05-10T22:14:23.937Z,4.53
2019-05-10T22:16:52.375Z,4.47
2019-05-10T22:19:20.810Z,4.97
2019-05-10T22:21:49.335Z,5.00
2019-05-10T22:24:17.770Z,4.90
2019-05-10T22:26:46.222Z,5.03
2019-05-10T22:29:14.665Z,4.93
2019-05-10T22:31:43.106Z,5.63
2019-05-10T22:34:11.546Z,5.73
2019-05-10T22:36:40.098Z,5.27
2019-05-10T22:39:08.543Z,5.90
2019-05-10T22:41:36.983Z,6.00
2019-05-10T22:44:05.429Z,5.53
2019-05-10T22:46:33.946Z,5.63
2019-05-10T22:49:02.645Z,6.50
2019-05-10T22:51:31.090Z,5.80
2019-05-10T22:54:00.406Z,5.90
2019-05-10T22:56:29.058Z,6.67
2019-05-10T22:58:57.565Z,6.70
2019-05-10T23:01:26.021Z,6.50
2019-05-10T23:03:54.469Z,6.47
2019-05-10T23:06:22.921Z,6.83
2019-05-10T23:08:51.439Z,6.93
2019-05-10T23:11:19.889Z,6.87
2019-05-10T23:13:48.328Z,6.67
2019-05-10T23:16:16.770Z,7.20
2019-05-10T23:18:45.209Z,7.47
2019-05-10T23:21:13.657Z,6.27
2019-05-10T23:23:42.106Z,6.50
2019-05-10T23:26:10.586Z,7.20
2019-05-10T23:28:39.066Z,8.07
2019-05-10T23:31:07.497Z,8.07
2019-05-10T23:33:35.949Z,7.80
2019-05-10T23:36:04.467Z,7.87
2019-05-10T23:38:32.897Z,7.37
2019-05-10T23:41:01.383Z,7.10
2019-05-10T23:43:29.862Z,7.13
2019-05-10T23:45:58.306Z,7.87
2019-05-10T23:48:26.750Z,7.30
2019-05-10T23:50:55.194Z,6.73
2019-05-10T23:53:23.634Z,6.73
2019-05-10T23:55:52.073Z,7.20
2019-05-10T23:58:20.520Z,7.07
